createdAt,value
2023-03-26T00:01:36.966Z,99215.27
2023-03-26T00:04:07.527Z,99215.60
2023-03-26T00:06:39.558Z,99213.73
2023-03-26T00:09:10.680Z,99211.39
2023-03-26T00:11:38.572Z,99208.52
2023-03-26T00:14:06.541Z,99210.03
2023-03-26T00:16:34.420Z,99210.21
2023-03-26T00:19:02.720Z,99210.21
2023-03-26T00:21:31.612Z,99207.01
2023-03-26T00:24:04.841Z,99208.52
2023-03-26T00:26:38.517Z,99210.57
2023-03-26T00:29:08.347Z,99209.71
2023-03-26T00:31:39.869Z,99203.45
2023-03-26T00:34:08.556Z,99203.10
2023-03-26T00:36:36.428Z,99198.02
2023-03-26T00:39:06.268Z,99200.58
2023-03-26T00:41:37.379Z,99199.71
2023-03-26T00:44:05.565Z,99200.38
2023-03-26T00:46:33.400Z,99200.89
2023-03-26T00:49:04.034Z,99196.48
2023-03-26T00:51:34.189Z,99194.44
2023-03-26T00:54:02.606Z,99194.94
2023-03-26T00:56:30.904Z,99192.23
2023-03-26T00:59:00.385Z,99190.54
2023-03-26T01:01:30.590Z,99186.81
2023-03-26T01:04:19.783Z,99183.44
2023-03-26T01:06:47.767Z,99184.11
2023-03-26T01:09:19.185Z,99181.90
2023-03-26T01:11:47.772Z,99184.62
2023-03-26T01:14:23.906Z,99181.58
2023-03-26T01:16:55.260Z,99182.08
2023-03-26T01:19:25.957Z,99179.36
2023-03-26T01:21:53.716Z,99179.38
2023-03-26T01:24:22.262Z,99179.36
2023-03-26T01:27:32.143Z,99175.30
2023-03-26T01:30:37.204Z,99173.75
2023-03-26T01:33:14.396Z,99171.89
2023-03-26T01:36:01.149Z,99166.80
2023-03-26T01:39:00.550Z,99167.47
2023-03-26T01:41:49.396Z,99165.11
2023-03-26T01:44:28.649Z,99164.61
2023-03-26T01:46:58.200Z,99160.89
2023-03-26T01:49:29.274Z,99158.36
2023-03-26T01:51:58.102Z,99153.80
2023-03-26T01:54:31.547Z,99150.25
2023-03-26T01:57:12.900Z,99143.64
2023-03-26T01:59:53.032Z,99140.92
2023-03-26T02:02:31.083Z,99139.25
2023-03-26T02:05:13.093Z,99140.45
2023-03-26T02:07:58.624Z,99134.85
2023-03-26T02:10:30.333Z,99133.69
2023-03-26T02:12:59.158Z,99133.71
2023-03-26T02:15:27.184Z,99130.33
2023-03-26T02:17:55.112Z,99130.52
2023-03-26T02:20:23.122Z,99134.06
2023-03-26T02:22:50.937Z,99134.05
2023-03-26T02:25:20.816Z,99134.04
2023-03-26T02:27:50.095Z,99132.36
2023-03-26T02:30:25.805Z,99131.67
2023-03-26T02:32:54.418Z,99130.14
2023-03-26T02:35:22.890Z,99123.20
2023-03-26T02:37:51.076Z,99121.31
2023-03-26T02:40:21.241Z,99120.80
2023-03-26T02:42:49.358Z,99120.97
2023-03-26T02:45:17.246Z,99121.79
2023-03-26T02:47:46.112Z,99120.59
2023-03-26T02:50:14.699Z,99119.56
2023-03-26T02:52:43.271Z,99117.02
2023-03-26T02:55:11.165Z,99115.48
2023-03-26T02:57:39.125Z,99118.17
2023-03-26T03:00:16.946Z,99114.95
2023-03-26T03:02:48.163Z,99116.12
2023-03-26T03:05:18.193Z,99120.70
2023-03-26T03:07:46.642Z,99119.84
2023-03-26T03:10:15.489Z,99118.66
2023-03-26T03:12:43.426Z,99117.82
2023-03-26T03:15:11.916Z,99115.96
2023-03-26T03:17:40.692Z,99113.42
2023-03-26T03:20:11.515Z,99115.33
2023-03-26T03:22:39.841Z,99115.51
2023-03-26T03:25:14.486Z,99116.37
2023-03-26T03:27:42.962Z,99120.45
2023-03-26T03:30:13.259Z,99114.69
2023-03-26T03:32:41.182Z,99120.96
2023-03-26T03:35:09.270Z,99119.95
2023-03-26T03:37:37.334Z,99119.61
2023-03-26T03:40:07.811Z,99125.21
2023-03-26T03:42:35.599Z,99125.90
2023-03-26T03:45:06.053Z,99124.89
2023-03-26T03:47:33.968Z,99126.08
2023-03-26T03:50:02.222Z,99125.24
2023-03-26T03:52:30.587Z,99132.01
2023-03-26T03:55:00.509Z,99126.58
2023-03-26T03:57:29.218Z,99126.94
2023-03-26T04:00:00.003Z,99124.05
2023-03-26T04:02:34.716Z,99119.98
2023-03-26T04:05:04.208Z,99114.90
2023-03-26T04:07:32.799Z,99116.09
2023-03-26T04:10:03.016Z,99116.60
2023-03-26T04:12:31.459Z,99116.08
2023-03-26T04:15:00.557Z,99115.73
2023-03-26T04:17:30.598Z,99115.39
2023-03-26T04:19:58.806Z,99115.89
2023-03-26T04:22:36.680Z,99113.34
2023-03-26T04:25:05.397Z,99113.17
2023-03-26T04:27:38.040Z,99113.34
2023-03-26T04:30:08.320Z,99112.16
2023-03-26T04:32:38.348Z,99112.49
2023-03-26T04:35:06.996Z,99112.32
2023-03-26T04:37:40.219Z,99109.94
2023-03-26T04:40:14.117Z,99108.58
2023-03-26T04:42:46.086Z,99104.33
2023-03-26T04:45:16.574Z,99104.66
2023-03-26T04:47:46.800Z,99106.02
2023-03-26T04:50:15.628Z,99108.55
2023-03-26T04:52:45.129Z,99105.84
2023-03-26T04:55:40.196Z,99105.48
2023-03-26T04:58:09.647Z,99104.82
2023-03-26T05:00:37.457Z,99107.67
2023-03-26T05:03:06.459Z,99107.86
2023-03-26T05:05:34.522Z,99102.60
2023-03-26T05:08:02.487Z,99103.95
2023-03-26T05:10:30.453Z,99103.59
2023-03-26T05:12:58.420Z,99103.94
2023-03-26T05:15:26.392Z,99103.27
2023-03-26T05:17:55.767Z,99104.77
2023-03-26T05:20:26.485Z,99105.09
2023-03-26T05:22:54.329Z,99102.89
2023-03-26T05:25:22.663Z,99100.85
2023-03-26T05:27:50.747Z,99098.27
2023-03-26T05:30:21.300Z,99096.39
2023-03-26T05:32:49.569Z,99091.43
2023-03-26T05:35:18.362Z,99093.58
2023-03-26T05:37:47.521Z,99093.89
2023-03-26T05:40:17.287Z,99093.00
2023-03-26T05:42:45.678Z,99097.20
2023-03-26T05:45:15.017Z,99096.66
2023-03-26T05:47:43.408Z,99093.91
2023-03-26T05:50:11.682Z,99096.09
2023-03-26T05:52:40.066Z,99098.30
2023-03-26T05:55:08.926Z,99102.02
2023-03-26T05:57:37.673Z,99108.48
2023-03-26T06:00:09.012Z,99107.17
2023-03-26T06:02:36.862Z,99104.02
2023-03-26T06:05:05.298Z,99103.20
2023-03-26T06:07:34.103Z,99103.20
2023-03-26T06:10:03.000Z,99105.08
2023-03-26T06:12:30.849Z,99104.39
2023-03-26T06:14:58.841Z,99108.97
2023-03-26T06:17:26.839Z,99109.35
2023-03-26T06:19:54.689Z,99112.56
2023-03-26T06:22:22.530Z,99112.39
2023-03-26T06:24:52.877Z,99112.06
2023-03-26T06:27:20.816Z,99108.72
2023-03-26T06:29:48.702Z,99109.56
2023-03-26T06:32:19.565Z,99113.10
2023-03-26T06:34:48.220Z,99112.41
2023-03-26T06:37:17.107Z,99109.53
2023-03-26T06:39:44.899Z,99107.31
2023-03-26T06:42:12.725Z,99109.29
2023-03-26T06:44:40.552Z,99111.63
2023-03-26T06:47:08.321Z,99110.22
2023-03-26T06:49:38.346Z,99108.11
2023-03-26T06:52:06.253Z,99111.42
2023-03-26T06:54:34.030Z,99110.68
2023-03-26T06:57:01.883Z,99109.42
2023-03-26T06:59:29.910Z,99108.48
2023-03-26T07:01:57.796Z,99108.58
2023-03-26T07:04:25.779Z,99105.80
2023-03-26T07:06:54.041Z,99104.40
2023-03-26T07:09:21.882Z,99101.63
2023-03-26T07:11:49.777Z,99103.30
2023-03-26T07:14:17.658Z,99108.22
2023-03-26T07:16:45.458Z,99106.14
2023-03-26T07:19:13.474Z,99102.91
2023-03-26T07:21:41.851Z,99108.10
2023-03-26T07:24:11.769Z,99108.26
2023-03-26T07:27:01.356Z,99109.39
2023-03-26T07:29:43.956Z,99106.77
2023-03-26T07:32:19.177Z,99108.77
2023-03-26T07:34:59.350Z,99100.92
2023-03-26T07:37:57.419Z,99095.85
2023-03-26T07:40:45.620Z,99098.84
2023-03-26T07:43:34.743Z,99100.54
2023-03-26T07:46:02.972Z,99096.60
2023-03-26T07:48:43.134Z,99094.65
2023-03-26T07:51:11.787Z,99096.74
2023-03-26T07:53:40.218Z,99096.63
2023-03-26T07:56:13.595Z,99094.20
2023-03-26T07:59:00.339Z,99097.23
2023-03-26T08:01:40.472Z,99094.03
2023-03-26T08:04:25.997Z,99091.34
2023-03-26T08:07:05.392Z,99090.02
2023-03-26T08:10:02.744Z,99088.80
2023-03-26T08:13:11.885Z,99087.21
2023-03-26T08:16:08.305Z,99087.50
2023-03-26T08:19:13.849Z,99085.80
2023-03-26T08:22:08.360Z,99086.44
2023-03-26T08:25:17.749Z,99086.08
2023-03-26T08:28:04.361Z,99085.12
2023-03-26T08:30:32.811Z,99082.77
2023-03-26T08:33:12.089Z,99082.67
2023-03-26T08:35:42.643Z,99084.04
2023-03-26T08:38:11.933Z,99081.13
2023-03-26T08:41:17.175Z,99080.63
2023-03-26T08:44:19.640Z,99082.02
2023-03-26T08:47:06.246Z,99081.95
2023-03-26T08:49:40.365Z,99086.04
2023-03-26T08:52:14.268Z,99089.08
2023-03-26T08:54:42.146Z,99083.91
2023-03-26T08:57:31.808Z,99082.39
2023-03-26T09:00:31.314Z,99080.13
2023-03-26T09:03:14.435Z,99082.05
2023-03-26T09:06:25.399Z,99079.34
2023-03-26T09:08:59.745Z,99078.77
2023-03-26T09:12:05.358Z,99078.13
2023-03-26T09:14:54.975Z,99083.15
2023-03-26T09:17:47.831Z,99079.13
2023-03-26T09:20:54.830Z,99067.67
2023-03-26T09:23:52.828Z,99070.97
2023-03-26T09:26:32.282Z,99069.69
2023-03-26T09:29:38.901Z,99070.44
2023-03-26T09:32:32.971Z,99074.42
2023-03-26T09:35:27.252Z,99074.35
2023-03-26T09:38:33.201Z,99076.70
2023-03-26T09:41:32.507Z,99080.26
2023-03-26T09:44:56.581Z,99074.05
2023-03-26T09:48:14.315Z,99073.08
2023-03-26T09:50:42.586Z,99077.79
2023-03-26T09:53:25.712Z,99076.24
2023-03-26T09:55:57.461Z,99076.20
2023-03-26T09:58:28.681Z,99076.11
2023-03-26T10:01:14.848Z,99064.60
2023-03-26T10:04:02.132Z,99060.28
2023-03-26T10:06:49.082Z,99063.63
2023-03-26T10:09:30.411Z,99062.05
2023-03-26T10:12:20.539Z,99058.95
2023-03-26T10:15:09.653Z,99057.38
2023-03-26T10:17:51.427Z,99062.66
2023-03-26T10:20:47.813Z,99066.83
2023-03-26T10:23:34.196Z,99069.66
2023-03-26T10:26:21.416Z,99081.65
2023-03-26T10:29:08.241Z,99084.33
2023-03-26T10:31:44.084Z,99083.00
2023-03-26T10:34:29.445Z,99075.73
2023-03-26T10:37:07.755Z,99074.62
2023-03-26T10:40:01.545Z,99068.55
2023-03-26T10:42:45.690Z,99066.21
2023-03-26T10:45:24.861Z,99064.53
2023-03-26T10:48:23.152Z,99064.77
2023-03-26T10:51:19.969Z,99056.45
2023-03-26T10:53:56.917Z,99056.96
2023-03-26T10:56:33.522Z,99061.85
2023-03-26T10:59:06.561Z,99065.69
2023-03-26T11:01:56.355Z,99067.39
2023-03-26T11:05:02.002Z,99062.70
2023-03-26T11:07:45.018Z,99060.86
2023-03-26T11:10:36.247Z,99058.92
2023-03-26T11:13:38.815Z,99057.98
2023-03-26T11:16:17.261Z,99052.41
2023-03-26T11:19:27.539Z,99049.54
2023-03-26T11:22:26.291Z,99048.27
2023-03-26T11:25:12.683Z,99049.80
2023-03-26T11:27:56.799Z,99048.38
2023-03-26T11:30:51.656Z,99044.40
2023-03-26T11:33:48.985Z,99046.85
2023-03-26T11:36:29.377Z,99045.88
2023-03-26T11:39:00.294Z,99049.31
2023-03-26T11:41:32.753Z,99048.95
2023-03-26T11:44:07.709Z,99049.48
2023-03-26T11:46:42.604Z,99051.63
2023-03-26T11:49:14.635Z,99052.58
2023-03-26T11:51:44.901Z,99052.48
2023-03-26T11:54:13.595Z,99050.86
2023-03-26T11:57:05.619Z,99048.67
2023-03-26T11:59:55.377Z,99043.26
2023-03-26T12:02:38.873Z,99042.33
2023-03-26T12:05:20.538Z,99038.52
2023-03-26T12:07:56.881Z,99032.94
2023-03-26T12:10:26.700Z,99031.23
2023-03-26T12:13:01.295Z,99037.10
2023-03-26T12:15:32.013Z,99044.83
2023-03-26T12:18:23.198Z,99041.02
2023-03-26T12:21:03.489Z,99042.49
2023-03-26T12:23:36.249Z,99043.39
2023-03-26T12:26:12.251Z,99046.63
2023-03-26T12:28:45.072Z,99044.91
2023-03-26T12:31:19.328Z,99044.29
2023-03-26T12:34:07.815Z,99042.41
2023-03-26T12:36:36.784Z,99043.13
2023-03-26T12:40:10.011Z,99050.95
2023-03-26T12:44:48.737Z,99067.64
2023-03-26T12:45:29.058Z,99068.98
2023-03-26T12:48:03.945Z,99067.39
2023-03-26T12:50:41.584Z,99068.06
2023-03-26T12:53:29.308Z,99060.05
2023-03-26T12:56:27.393Z,99060.15
2023-03-26T12:59:07.640Z,99052.87
2023-03-26T13:01:52.983Z,99050.65
2023-03-26T13:04:27.485Z,99044.85
2023-03-26T13:07:11.276Z,99044.11
2023-03-26T13:09:59.938Z,99048.16
2023-03-26T13:12:34.969Z,99039.65
2023-03-26T13:15:27.322Z,99041.06
2023-03-26T13:18:33.465Z,99040.42
2023-03-26T13:21:01.230Z,99034.29
2023-03-26T13:23:38.229Z,99041.23
2023-03-26T13:26:24.718Z,99040.21
2023-03-26T13:29:09.268Z,99043.43
2023-03-26T13:31:45.445Z,99051.98
2023-03-26T13:34:26.416Z,99064.98
2023-03-26T13:37:11.098Z,99051.23
2023-03-26T13:40:32.928Z,99045.38
2023-03-26T13:43:36.607Z,99046.39
2023-03-26T13:46:22.478Z,99046.17
2023-03-26T13:49:02.023Z,99047.64
2023-03-26T13:51:40.775Z,99050.66
2023-03-26T13:54:14.660Z,99048.02
2023-03-26T13:56:47.987Z,99050.86
2023-03-26T13:59:45.066Z,99045.52
2023-03-26T14:02:30.833Z,99050.47
2023-03-26T14:05:28.856Z,99046.98
2023-03-26T14:08:17.921Z,99038.94
2023-03-26T14:10:58.889Z,99042.64
2023-03-26T14:13:54.812Z,99040.20
2023-03-26T14:16:28.105Z,99043.77
2023-03-26T14:19:33.772Z,99042.77
2023-03-26T14:22:23.020Z,99046.17
2023-03-26T14:24:58.820Z,99045.85
2023-03-26T14:27:38.564Z,99042.20
2023-03-26T14:30:12.419Z,99045.18
2023-03-26T14:33:14.593Z,99040.55
2023-03-26T14:36:44.990Z,99039.19
2023-03-26T14:39:30.909Z,99039.66
2023-03-26T14:42:02.279Z,99038.11
2023-03-26T14:44:47.558Z,99037.59
2023-03-26T14:47:20.583Z,99032.05
2023-03-26T14:50:20.574Z,99029.34
2023-03-26T14:52:52.975Z,99029.59
2023-03-26T14:55:44.007Z,99029.73
2023-03-26T14:58:28.243Z,99028.52
2023-03-26T15:01:17.641Z,99031.77
2023-03-26T15:04:22.832Z,99030.81
2023-03-26T15:07:19.797Z,99028.44
2023-03-26T15:09:53.573Z,99026.38
2023-03-26T15:12:24.367Z,99025.08
2023-03-26T15:15:14.145Z,99030.83
2023-03-26T15:18:06.497Z,99036.94
2023-03-26T15:21:13.059Z,99035.98
2023-03-26T15:24:06.725Z,99044.11
2023-03-26T15:26:56.965Z,99042.60
2023-03-26T15:29:35.631Z,99043.19
2023-03-26T15:32:17.428Z,99045.55
2023-03-26T15:34:48.785Z,99041.02
2023-03-26T15:37:54.444Z,99039.23
2023-03-26T15:40:31.120Z,99040.20
2023-03-26T15:43:11.168Z,99038.48
2023-03-26T15:45:44.457Z,99043.44
2023-03-26T15:48:32.600Z,99044.73
2023-03-26T15:51:03.218Z,99047.47
2023-03-26T15:53:43.887Z,99049.27
2023-03-26T15:56:20.760Z,99049.91
2023-03-26T15:59:06.026Z,99055.46
2023-03-26T16:02:04.710Z,99056.27
2023-03-26T16:05:05.234Z,99054.43
2023-03-26T16:07:58.911Z,99054.29
2023-03-26T16:10:59.075Z,99049.68
2023-03-26T16:13:38.607Z,99050.70
2023-03-26T16:16:15.560Z,99049.80
2023-03-26T16:18:46.693Z,99050.02
2023-03-26T16:21:30.646Z,99055.14
2023-03-26T16:24:03.418Z,99058.64
2023-03-26T16:26:43.263Z,99057.05
2023-03-26T16:29:18.390Z,99056.69
2023-03-26T16:32:37.826Z,99055.64
2023-03-26T16:35:14.550Z,99060.88
2023-03-26T16:37:50.199Z,99059.36
2023-03-26T16:40:18.140Z,99066.00
2023-03-26T16:43:10.710Z,99068.67
2023-03-26T16:46:03.828Z,99071.06
2023-03-26T16:48:50.777Z,99071.59
2023-03-26T16:51:40.148Z,99069.23
2023-03-26T16:54:43.611Z,99075.26
2023-03-26T16:57:17.293Z,99077.63
2023-03-26T17:00:13.859Z,99079.80
2023-03-26T17:02:42.762Z,99081.83
2023-03-26T17:05:26.023Z,99083.11
2023-03-26T17:08:12.666Z,99085.30
2023-03-26T17:10:47.024Z,99086.45
2023-03-26T17:13:23.594Z,99082.83
2023-03-26T17:16:26.919Z,99087.18
2023-03-26T17:19:04.586Z,99088.33
2023-03-26T17:21:55.592Z,99091.33
2023-03-26T17:24:30.693Z,99088.15
2023-03-26T17:27:24.509Z,99089.81
2023-03-26T17:30:17.875Z,99092.34
2023-03-26T17:33:21.739Z,99091.80
2023-03-26T17:35:52.367Z,99099.41
2023-03-26T17:38:26.841Z,99099.20
2023-03-26T17:40:58.964Z,99099.64
2023-03-26T17:43:35.910Z,99097.54
2023-03-26T17:46:13.664Z,99091.38
2023-03-26T17:48:47.169Z,99092.83
2023-03-26T17:51:40.436Z,99094.45
2023-03-26T17:54:17.769Z,99096.10
2023-03-26T17:56:47.719Z,99096.36
2023-03-26T17:59:23.628Z,99101.20
2023-03-26T18:01:55.925Z,99097.89
2023-03-26T18:04:30.807Z,99103.03
2023-03-26T18:07:32.666Z,99103.92
2023-03-26T18:10:03.228Z,99108.20
2023-03-26T18:12:56.291Z,99108.08
2023-03-26T18:15:46.085Z,99106.40
2023-03-26T18:18:20.238Z,99109.48
2023-03-26T18:20:50.821Z,99107.27
2023-03-26T18:23:29.792Z,99105.44
2023-03-26T18:26:09.222Z,99102.21
2023-03-26T18:28:45.596Z,99104.91
2023-03-26T18:31:24.061Z,99099.66
2023-03-26T18:33:59.143Z,99100.16
2023-03-26T18:36:28.159Z,99099.14
2023-03-26T18:38:58.821Z,99099.80
2023-03-26T18:41:31.541Z,99100.30
2023-03-26T18:44:05.626Z,99097.08
2023-03-26T18:46:34.237Z,99096.89
2023-03-26T18:49:03.158Z,99095.36
2023-03-26T18:51:32.401Z,99088.41
2023-03-26T18:54:04.924Z,99086.20
2023-03-26T18:56:35.501Z,99082.32
2023-03-26T18:59:22.139Z,99082.34
2023-03-26T19:01:50.971Z,99077.63
2023-03-26T19:04:19.320Z,99072.75
2023-03-26T19:06:47.417Z,99069.73
2023-03-26T19:09:28.130Z,99062.83
2023-03-26T19:12:16.474Z,99064.55
2023-03-26T19:14:54.376Z,99060.17
2023-03-26T19:17:24.638Z,99060.17
2023-03-26T19:19:54.304Z,99062.23
2023-03-26T19:22:26.168Z,99064.11
2023-03-26T19:25:01.301Z,99058.89
2023-03-26T19:27:29.853Z,99060.94
2023-03-26T19:29:57.929Z,99059.41
2023-03-26T19:32:34.945Z,99060.95
2023-03-26T19:35:04.683Z,99060.13
2023-03-26T19:37:33.346Z,99059.63
2023-03-26T19:40:22.489Z,99059.46
2023-03-26T19:42:50.857Z,99052.52
2023-03-26T19:45:21.933Z,99054.90
2023-03-26T19:48:03.642Z,99052.55
2023-03-26T19:50:46.007Z,99053.58
2023-03-26T19:53:25.695Z,99048.34
2023-03-26T19:56:05.268Z,99044.30
2023-03-26T19:58:35.818Z,99045.14
2023-03-26T20:01:04.814Z,99041.77
2023-03-26T20:03:44.526Z,99039.06
2023-03-26T20:06:14.882Z,99036.17
2023-03-26T20:08:43.792Z,99033.98
2023-03-26T20:11:22.048Z,99034.15
2023-03-26T20:13:50.738Z,99031.77
2023-03-26T20:16:26.659Z,99023.02
2023-03-26T20:18:58.461Z,99025.88
2023-03-26T20:21:26.591Z,99021.66
2023-03-26T20:23:55.304Z,99019.80
2023-03-26T20:26:24.336Z,99019.30
2023-03-26T20:28:53.852Z,99018.45
2023-03-26T20:31:25.457Z,99019.47
2023-03-26T20:33:54.339Z,99020.14
2023-03-26T20:36:34.173Z,99019.63
2023-03-26T20:39:07.910Z,99020.30
2023-03-26T20:41:45.675Z,99017.59
2023-03-26T20:44:16.773Z,99015.40
2023-03-26T20:46:46.088Z,99013.20
2023-03-26T20:49:18.207Z,99017.23
2023-03-26T20:51:46.944Z,99019.95
2023-03-26T20:54:20.231Z,99024.18
2023-03-26T20:56:49.326Z,99021.83
2023-03-26T20:59:21.810Z,99020.64
2023-03-26T21:01:50.682Z,99021.15
2023-03-26T21:04:19.780Z,99022.50
2023-03-26T21:06:48.283Z,99025.55
2023-03-26T21:09:19.223Z,99026.23
2023-03-26T21:12:01.811Z,99026.56
2023-03-26T21:14:44.249Z,99024.70
2023-03-26T21:17:22.259Z,99020.48
2023-03-26T21:19:50.499Z,99022.67
2023-03-26T21:22:44.717Z,99023.17
2023-03-26T21:25:45.392Z,99018.78
2023-03-26T21:28:17.359Z,99020.30
2023-03-26T21:30:47.253Z,99020.81
2023-03-26T21:33:15.326Z,99019.80
2023-03-26T21:35:44.895Z,99018.45
2023-03-26T21:38:13.647Z,99017.61
2023-03-26T21:40:46.969Z,99016.77
2023-03-26T21:43:21.878Z,99022.00
2023-03-26T21:45:50.287Z,99016.42
2023-03-26T21:48:18.514Z,99011.70
2023-03-26T21:50:46.871Z,99011.19
2023-03-26T21:53:15.916Z,99004.61
2023-03-26T21:56:12.527Z,99003.94
2023-03-26T21:59:17.544Z,99000.55
2023-03-26T22:02:12.853Z,98996.48
2023-03-26T22:04:53.664Z,98993.27
2023-03-26T22:07:49.405Z,98995.28
2023-03-26T22:10:17.407Z,98994.76
2023-03-26T22:12:45.476Z,98994.41
2023-03-26T22:15:14.076Z,98994.23
2023-03-26T22:17:42.268Z,98992.70
2023-03-26T22:20:14.775Z,98997.58
2023-03-26T22:22:49.047Z,98998.73
2023-03-26T22:25:18.286Z,99001.75
2023-03-26T22:27:47.197Z,98998.20
2023-03-26T22:30:15.798Z,98995.14
2023-03-26T22:32:44.845Z,98999.36
2023-03-26T22:35:13.135Z,98998.98
2023-03-26T22:37:41.851Z,98997.61
2023-03-26T22:40:13.103Z,98995.23
2023-03-26T22:42:41.881Z,98994.40
2023-03-26T22:45:11.232Z,98998.09
2023-03-26T22:47:39.392Z,98995.71
2023-03-26T22:50:08.331Z,98997.19
2023-03-26T22:52:37.258Z,98991.61
2023-03-26T22:55:05.493Z,98990.91
2023-03-26T22:57:33.564Z,98985.87
2023-03-26T23:00:16.485Z,98986.54
2023-03-26T23:02:45.286Z,98984.52
2023-03-26T23:05:14.292Z,98984.35
2023-03-26T23:07:42.644Z,98985.55
2023-03-26T23:10:11.373Z,98982.86
2023-03-26T23:12:40.425Z,98981.67
2023-03-26T23:15:09.996Z,98982.86
2023-03-26T23:17:38.347Z,98980.48
2023-03-26T23:20:15.147Z,98981.50
2023-03-26T23:22:43.472Z,98983.36
2023-03-26T23:25:12.589Z,98987.40
2023-03-26T23:27:41.634Z,98987.24
2023-03-26T23:30:11.044Z,98990.27
2023-03-26T23:32:39.087Z,98995.34
2023-03-26T23:35:07.733Z,98995.00
2023-03-26T23:37:35.679Z,98997.88
2023-03-26T23:40:10.308Z,98994.52
2023-03-26T23:42:38.269Z,98998.58
2023-03-26T23:45:07.083Z,98998.05
2023-03-26T23:47:35.047Z,98998.23
2023-03-26T23:50:03.692Z,98994.73
2023-03-26T23:52:31.799Z,98995.27
2023-03-26T23:55:02.374Z,98994.27
2023-03-26T23:57:30.664Z,98993.59
2023-03-26T23:59:58.593Z,98992.27
